sensor_id;sensor_type;location;lat;lon;timestamp;temperature;humidity
39453;DHT22;25154;-33.684;151.102;2023-01-28T00:01:38;28.50;99.90
39453;DHT22;25154;-33.684;151.102;2023-01-28T00:06:42;28.60;99.90
39453;DHT22;25154;-33.684;151.102;2023-01-28T00:11:45;28.70;99.90
39453;DHT22;25154;-33.684;151.102;2023-01-28T00:16:49;29.30;99.90
39453;DHT22;25154;-33.684;151.102;2023-01-28T00:21:53;28.60;99.90
39453;DHT22;25154;-33.684;151.102;2023-01-28T00:26:57;30.90;99.90
39453;DHT22;25154;-33.684;151.102;2023-01-28T00:32:07;30.00;99.90
39453;DHT22;25154;-33.684;151.102;2023-01-28T00:37:11;29.90;99.90
39453;DHT22;25154;-33.684;151.102;2023-01-28T00:42:14;30.10;99.90
39453;DHT22;25154;-33.684;151.102;2023-01-28T00:47:17;30.40;99.90
39453;DHT22;25154;-33.684;151.102;2023-01-28T00:52:22;30.60;99.90
39453;DHT22;25154;-33.684;151.102;2023-01-28T00:57:25;30.70;99.90
39453;DHT22;25154;-33.684;151.102;2023-01-28T01:02:28;31.10;99.90
39453;DHT22;25154;-33.684;151.102;2023-01-28T01:07:31;31.50;99.90
39453;DHT22;25154;-33.684;151.102;2023-01-28T01:12:42;31.80;99.90
39453;DHT22;25154;-33.684;151.102;2023-01-28T01:17:48;32.00;99.90
39453;DHT22;25154;-33.684;151.102;2023-01-28T01:22:51;32.70;99.90
39453;DHT22;25154;-33.684;151.102;2023-01-28T01:27:53;33.10;99.90
39453;DHT22;25154;-33.684;151.102;2023-01-28T01:32:56;33.50;99.90
39453;DHT22;25154;-33.684;151.102;2023-01-28T01:37:58;33.60;99.90
39453;DHT22;25154;-33.684;151.102;2023-01-28T01:43:01;34.20;99.90
39453;DHT22;25154;-33.684;151.102;2023-01-28T01:48:08;34.50;99.90
39453;DHT22;25154;-33.684;151.102;2023-01-28T01:53:15;35.10;99.90
39453;DHT22;25154;-33.684;151.102;2023-01-28T01:58:23;35.40;99.90
39453;DHT22;25154;-33.684;151.102;2023-01-28T02:03:35;35.60;99.90
39453;DHT22;25154;-33.684;151.102;2023-01-28T02:08:39;35.40;99.80
39453;DHT22;25154;-33.684;151.102;2023-01-28T02:13:46;34.10;99.90
39453;DHT22;25154;-33.684;151.102;2023-01-28T02:18:51;33.60;99.90
39453;DHT22;25154;-33.684;151.102;2023-01-28T02:35:06;36.30;99.90
39453;DHT22;25154;-33.684;151.102;2023-01-28T02:40:12;37.00;99.90
39453;DHT22;25154;-33.684;151.102;2023-01-28T02:45:26;37.40;99.90
39453;DHT22;25154;-33.684;151.102;2023-01-28T02:51:08;37.20;99.90
39453;DHT22;25154;-33.684;151.102;2023-01-28T03:01:41;37.60;99.90
39453;DHT22;25154;-33.684;151.102;2023-01-28T03:06:49;37.70;99.90
39453;DHT22;25154;-33.684;151.102;2023-01-28T03:12:04;37.80;99.90
39453;DHT22;25154;-33.684;151.102;2023-01-28T03:23:02;37.30;99.90
39453;DHT22;25154;-33.684;151.102;2023-01-28T03:28:25;37.40;99.90
39453;DHT22;25154;-33.684;151.102;2023-01-28T03:33:48;37.50;99.90
39453;DHT22;25154;-33.684;151.102;2023-01-28T03:39:09;37.30;99.90
39453;DHT22;25154;-33.684;151.102;2023-01-28T03:44:12;37.80;99.90
39453;DHT22;25154;-33.684;151.102;2023-01-28T03:49:32;38.20;99.90
39453;DHT22;25154;-33.684;151.102;2023-01-28T03:54:35;38.40;99.90
39453;DHT22;25154;-33.684;151.102;2023-01-28T03:59:37;38.20;99.90
39453;DHT22;25154;-33.684;151.102;2023-01-28T04:04:40;38.30;99.90
39453;DHT22;25154;-33.684;151.102;2023-01-28T04:09:44;38.30;99.90
39453;DHT22;25154;-33.684;151.102;2023-01-28T04:14:46;38.10;99.90
39453;DHT22;25154;-33.684;151.102;2023-01-28T04:19:49;37.90;99.60
39453;DHT22;25154;-33.684;151.102;2023-01-28T04:24:51;38.30;99.90
39453;DHT22;25154;-33.684;151.102;2023-01-28T04:29:54;38.40;99.90
39453;DHT22;25154;-33.684;151.102;2023-01-28T04:34:56;38.40;99.40
39453;DHT22;25154;-33.684;151.102;2023-01-28T04:39:58;38.10;99.40
39453;DHT22;25154;-33.684;151.102;2023-01-28T04:45:00;37.70;99.40
39453;DHT22;25154;-33.684;151.102;2023-01-28T04:50:03;37.80;99.90
39453;DHT22;25154;-33.684;151.102;2023-01-28T04:55:06;38.10;99.60
39453;DHT22;25154;-33.684;151.102;2023-01-28T05:00:15;37.90;99.10
39453;DHT22;25154;-33.684;151.102;2023-01-28T05:05:19;38.40;98.80
39453;DHT22;25154;-33.684;151.102;2023-01-28T05:10:22;38.40;98.70
39453;DHT22;25154;-33.684;151.102;2023-01-28T05:15:24;38.50;98.70
39453;DHT22;25154;-33.684;151.102;2023-01-28T05:20:27;38.40;98.60
39453;DHT22;25154;-33.684;151.102;2023-01-28T05:25:29;38.20;98.60
39453;DHT22;25154;-33.684;151.102;2023-01-28T05:30:31;38.90;98.10
39453;DHT22;25154;-33.684;151.102;2023-01-28T05:35:34;38.90;96.40
39453;DHT22;25154;-33.684;151.102;2023-01-28T05:40:37;38.70;96.70
39453;DHT22;25154;-33.684;151.102;2023-01-28T05:45:39;39.00;97.20
39453;DHT22;25154;-33.684;151.102;2023-01-28T05:50:42;38.80;97.10
39453;DHT22;25154;-33.684;151.102;2023-01-28T05:55:50;39.10;98.10
39453;DHT22;25154;-33.684;151.102;2023-01-28T06:00:55;39.40;97.20
39453;DHT22;25154;-33.684;151.102;2023-01-28T06:05:58;39.40;96.50
39453;DHT22;25154;-33.684;151.102;2023-01-28T06:11:01;38.60;97.20
39453;DHT22;25154;-33.684;151.102;2023-01-28T06:16:03;38.70;96.80
39453;DHT22;25154;-33.684;151.102;2023-01-28T06:21:06;38.80;97.20
39453;DHT22;25154;-33.684;151.102;2023-01-28T06:26:08;38.90;97.20
39453;DHT22;25154;-33.684;151.102;2023-01-28T06:31:11;38.50;97.40
39453;DHT22;25154;-33.684;151.102;2023-01-28T06:36:13;38.10;97.50
39453;DHT22;25154;-33.684;151.102;2023-01-28T06:41:16;37.70;98.00
39453;DHT22;25154;-33.684;151.102;2023-01-28T06:46:18;37.00;98.70
39453;DHT22;25154;-33.684;151.102;2023-01-28T06:51:20;37.30;98.80
39453;DHT22;25154;-33.684;151.102;2023-01-28T06:56:24;37.30;99.10
39453;DHT22;25154;-33.684;151.102;2023-01-28T07:01:26;36.80;98.60
39453;DHT22;25154;-33.684;151.102;2023-01-28T07:06:29;36.20;99.20
39453;DHT22;25154;-33.684;151.102;2023-01-28T07:11:31;35.30;99.30
39453;DHT22;25154;-33.684;151.102;2023-01-28T07:16:34;35.30;99.90
39453;DHT22;25154;-33.684;151.102;2023-01-28T07:21:36;34.80;99.90
39453;DHT22;25154;-33.684;151.102;2023-01-28T07:26:38;34.40;99.90
39453;DHT22;25154;-33.684;151.102;2023-01-28T07:31:41;33.40;99.90
39453;DHT22;25154;-33.684;151.102;2023-01-28T07:36:43;32.40;99.90
39453;DHT22;25154;-33.684;151.102;2023-01-28T07:41:45;31.60;99.90
39453;DHT22;25154;-33.684;151.102;2023-01-28T07:46:48;31.60;99.90
39453;DHT22;25154;-33.684;151.102;2023-01-28T07:51:52;31.40;99.90
39453;DHT22;25154;-33.684;151.102;2023-01-28T07:56:54;32.10;99.90
39453;DHT22;25154;-33.684;151.102;2023-01-28T08:01:57;31.20;99.90
39453;DHT22;25154;-33.684;151.102;2023-01-28T08:06:59;30.60;99.90
39453;DHT22;25154;-33.684;151.102;2023-01-28T08:12:01;30.10;99.90
39453;DHT22;25154;-33.684;151.102;2023-01-28T08:17:04;29.60;99.90
39453;DHT22;25154;-33.684;151.102;2023-01-28T08:22:06;29.00;99.90
39453;DHT22;25154;-33.684;151.102;2023-01-28T08:27:08;28.40;99.90
39453;DHT22;25154;-33.684;151.102;2023-01-28T08:32:11;27.90;99.90
39453;DHT22;25154;-33.684;151.102;2023-01-28T08:37:13;27.50;99.90
39453;DHT22;25154;-33.684;151.102;2023-01-28T08:42:17;27.30;99.90
39453;DHT22;25154;-33.684;151.102;2023-01-28T08:47:20;27.10;99.90
39453;DHT22;25154;-33.684;151.102;2023-01-28T08:52:22;26.80;99.90
39453;DHT22;25154;-33.684;151.102;2023-01-28T08:57:25;26.60;99.90
39453;DHT22;25154;-33.684;151.102;2023-01-28T09:02:27;26.40;99.90
39453;DHT22;25154;-33.684;151.102;2023-01-28T09:07:29;26.20;99.90
39453;DHT22;25154;-33.684;151.102;2023-01-28T09:12:32;26.00;99.90
39453;DHT22;25154;-33.684;151.102;2023-01-28T09:17:36;25.50;99.90
39453;DHT22;25154;-33.684;151.102;2023-01-28T09:22:38;25.70;99.90
39453;DHT22;25154;-33.684;151.102;2023-01-28T09:27:41;25.60;99.90
39453;DHT22;25154;-33.684;151.102;2023-01-28T09:32:43;25.40;99.90
39453;DHT22;25154;-33.684;151.102;2023-01-28T09:37:48;25.40;99.90
39453;DHT22;25154;-33.684;151.102;2023-01-28T09:48:15;25.20;99.90
39453;DHT22;25154;-33.684;151.102;2023-01-28T09:53:24;25.00;99.90
39453;DHT22;25154;-33.684;151.102;2023-01-28T09:58:27;25.00;99.90
39453;DHT22;25154;-33.684;151.102;2023-01-28T10:09:18;24.80;99.90
39453;DHT22;25154;-33.684;151.102;2023-01-28T10:25:16;24.60;99.90
39453;DHT22;25154;-33.684;151.102;2023-01-28T10:30:22;24.50;99.90
39453;DHT22;25154;-33.684;151.102;2023-01-28T10:35:26;24.40;99.90
39453;DHT22;25154;-33.684;151.102;2023-01-28T10:40:29;24.40;99.90
39453;DHT22;25154;-33.684;151.102;2023-01-28T10:45:40;24.30;99.90
39453;DHT22;25154;-33.684;151.102;2023-01-28T10:50:52;24.20;99.90
39453;DHT22;25154;-33.684;151.102;2023-01-28T10:55:57;24.20;99.90
39453;DHT22;25154;-33.684;151.102;2023-01-28T11:01:04;24.20;99.90
39453;DHT22;25154;-33.684;151.102;2023-01-28T11:06:26;24.10;99.90
39453;DHT22;25154;-33.684;151.102;2023-01-28T11:11:29;24.10;99.90
39453;DHT22;25154;-33.684;151.102;2023-01-28T11:16:31;24.00;99.90
39453;DHT22;25154;-33.684;151.102;2023-01-28T11:21:34;24.00;99.90
39453;DHT22;25154;-33.684;151.102;2023-01-28T11:26:38;23.90;99.90
39453;DHT22;25154;-33.684;151.102;2023-01-28T11:31:45;23.80;99.90
39453;DHT22;25154;-33.684;151.102;2023-01-28T11:37:01;23.80;99.90
39453;DHT22;25154;-33.684;151.102;2023-01-28T11:42:21;23.70;99.90
39453;DHT22;25154;-33.684;151.102;2023-01-28T11:47:43;23.60;99.90
39453;DHT22;25154;-33.684;151.102;2023-01-28T11:58:22;23.50;99.90
39453;DHT22;25154;-33.684;151.102;2023-01-28T12:14:36;23.40;99.90
39453;DHT22;25154;-33.684;151.102;2023-01-28T12:20:07;23.30;99.90
39453;DHT22;25154;-33.684;151.102;2023-01-28T12:42:09;23.20;99.90
39453;DHT22;25154;-33.684;151.102;2023-01-28T12:47:36;23.30;99.90
39453;DHT22;25154;-33.684;151.102;2023-01-28T12:52:45;23.30;99.90
39453;DHT22;25154;-33.684;151.102;2023-01-28T12:57:49;23.30;99.90
39453;DHT22;25154;-33.684;151.102;2023-01-28T13:03:18;23.40;99.90
39453;DHT22;25154;-33.684;151.102;2023-01-28T13:08:27;23.40;99.90
39453;DHT22;25154;-33.684;151.102;2023-01-28T13:13:47;23.40;99.90
39453;DHT22;25154;-33.684;151.102;2023-01-28T13:18:49;23.40;99.90
39453;DHT22;25154;-33.684;151.102;2023-01-28T13:34:38;23.30;99.90
39453;DHT22;25154;-33.684;151.102;2023-01-28T13:39:48;23.20;99.90
39453;DHT22;25154;-33.684;151.102;2023-01-28T13:44:51;23.10;99.90
39453;DHT22;25154;-33.684;151.102;2023-01-28T13:49:59;23.10;99.90
39453;DHT22;25154;-33.684;151.102;2023-01-28T13:55:12;23.10;99.90
39453;DHT22;25154;-33.684;151.102;2023-01-28T14:11:01;23.00;99.90
39453;DHT22;25154;-33.684;151.102;2023-01-28T14:21:19;22.90;99.90
39453;DHT22;25154;-33.684;151.102;2023-01-28T14:31:46;22.90;99.90
39453;DHT22;25154;-33.684;151.102;2023-01-28T14:36:49;23.00;99.90
39453;DHT22;25154;-33.684;151.102;2023-01-28T14:41:56;23.10;99.90
39453;DHT22;25154;-33.684;151.102;2023-01-28T14:47:22;23.10;99.90
39453;DHT22;25154;-33.684;151.102;2023-01-28T14:58:03;23.10;99.90
39453;DHT22;25154;-33.684;151.102;2023-01-28T15:03:17;23.10;99.90
39453;DHT22;25154;-33.684;151.102;2023-01-28T15:08:23;23.10;99.90
39453;DHT22;25154;-33.684;151.102;2023-01-28T15:13:28;23.10;99.90
39453;DHT22;25154;-33.684;151.102;2023-01-28T15:18:41;23.10;99.90
39453;DHT22;25154;-33.684;151.102;2023-01-28T15:23:51;22.70;99.90
39453;DHT22;25154;-33.684;151.102;2023-01-28T15:28:56;23.10;99.90
39453;DHT22;25154;-33.684;151.102;2023-01-28T15:34:16;23.10;99.90
39453;DHT22;25154;-33.684;151.102;2023-01-28T15:39:22;23.00;99.90
39453;DHT22;25154;-33.684;151.102;2023-01-28T15:44:38;22.90;99.90
39453;DHT22;25154;-33.684;151.102;2023-01-28T15:49:45;22.80;99.90
39453;DHT22;25154;-33.684;151.102;2023-01-28T15:54:50;22.80;99.90
39453;DHT22;25154;-33.684;151.102;2023-01-28T16:05:37;22.60;99.90
39453;DHT22;25154;-33.684;151.102;2023-01-28T16:10:40;22.60;99.90
39453;DHT22;25154;-33.684;151.102;2023-01-28T16:15:51;22.50;99.90
39453;DHT22;25154;-33.684;151.102;2023-01-28T16:20:54;22.50;99.90
39453;DHT22;25154;-33.684;151.102;2023-01-28T16:26:02;22.40;99.90
39453;DHT22;25154;-33.684;151.102;2023-01-28T16:31:08;22.40;99.90
39453;DHT22;25154;-33.684;151.102;2023-01-28T16:36:14;22.30;99.90
39453;DHT22;25154;-33.684;151.102;2023-01-28T16:41:25;22.30;99.90
39453;DHT22;25154;-33.684;151.102;2023-01-28T16:46:29;22.30;99.90
39453;DHT22;25154;-33.684;151.102;2023-01-28T16:51:31;22.30;99.90
39453;DHT22;25154;-33.684;151.102;2023-01-28T16:56:34;22.30;99.90
39453;DHT22;25154;-33.684;151.102;2023-01-28T17:01:37;22.40;99.90
39453;DHT22;25154;-33.684;151.102;2023-01-28T17:06:41;22.50;99.90
39453;DHT22;25154;-33.684;151.102;2023-01-28T17:11:46;22.60;99.90
39453;DHT22;25154;-33.684;151.102;2023-01-28T17:16:48;22.60;99.90
39453;DHT22;25154;-33.684;151.102;2023-01-28T17:21:50;22.70;99.90
39453;DHT22;25154;-33.684;151.102;2023-01-28T17:26:53;22.70;99.90
39453;DHT22;25154;-33.684;151.102;2023-01-28T17:31:55;22.80;99.90
39453;DHT22;25154;-33.684;151.102;2023-01-28T17:36:58;22.80;99.90
39453;DHT22;25154;-33.684;151.102;2023-01-28T17:42:00;22.90;99.90
39453;DHT22;25154;-33.684;151.102;2023-01-28T17:47:02;22.80;99.90
39453;DHT22;25154;-33.684;151.102;2023-01-28T17:52:05;22.90;99.90
39453;DHT22;25154;-33.684;151.102;2023-01-28T17:57:07;22.80;99.90
39453;DHT22;25154;-33.684;151.102;2023-01-28T18:02:10;22.80;99.90
39453;DHT22;25154;-33.684;151.102;2023-01-28T18:07:14;22.90;99.90
39453;DHT22;25154;-33.684;151.102;2023-01-28T18:12:17;22.90;99.90
39453;DHT22;25154;-33.684;151.102;2023-01-28T18:17:19;22.90;99.90
39453;DHT22;25154;-33.684;151.102;2023-01-28T18:22:27;22.90;99.90
39453;DHT22;25154;-33.684;151.102;2023-01-28T18:27:29;23.00;99.90
39453;DHT22;25154;-33.684;151.102;2023-01-28T18:32:32;23.00;99.90
39453;DHT22;25154;-33.684;151.102;2023-01-28T18:37:35;23.00;99.90
39453;DHT22;25154;-33.684;151.102;2023-01-28T18:42:37;23.00;99.90
39453;DHT22;25154;-33.684;151.102;2023-01-28T18:47:40;23.10;99.90
39453;DHT22;25154;-33.684;151.102;2023-01-28T18:52:42;23.00;99.90
39453;DHT22;25154;-33.684;151.102;2023-01-28T18:57:44;23.10;99.90
39453;DHT22;25154;-33.684;151.102;2023-01-28T19:02:47;23.10;99.90
39453;DHT22;25154;-33.684;151.102;2023-01-28T19:07:49;23.10;99.90
39453;DHT22;25154;-33.684;151.102;2023-01-28T19:12:51;23.10;99.90
39453;DHT22;25154;-33.684;151.102;2023-01-28T19:17:54;23.00;99.90
39453;DHT22;25154;-33.684;151.102;2023-01-28T19:22:56;23.00;99.90
39453;DHT22;25154;-33.684;151.102;2023-01-28T19:27:58;23.00;99.90
39453;DHT22;25154;-33.684;151.102;2023-01-28T19:33:02;23.10;99.90
39453;DHT22;25154;-33.684;151.102;2023-01-28T19:38:04;23.10;99.90
39453;DHT22;25154;-33.684;151.102;2023-01-28T19:43:07;23.10;99.90
39453;DHT22;25154;-33.684;151.102;2023-01-28T19:48:09;23.00;99.90
39453;DHT22;25154;-33.684;151.102;2023-01-28T19:53:11;23.00;99.90
39453;DHT22;25154;-33.684;151.102;2023-01-28T19:58:16;23.10;99.90
39453;DHT22;25154;-33.684;151.102;2023-01-28T20:03:18;23.10;99.90
39453;DHT22;25154;-33.684;151.102;2023-01-28T20:08:21;23.10;99.90
39453;DHT22;25154;-33.684;151.102;2023-01-28T20:13:23;23.20;99.90
39453;DHT22;25154;-33.684;151.102;2023-01-28T20:18:25;23.20;99.90
39453;DHT22;25154;-33.684;151.102;2023-01-28T20:23:28;23.30;99.90
39453;DHT22;25154;-33.684;151.102;2023-01-28T20:28:30;23.40;99.90
39453;DHT22;25154;-33.684;151.102;2023-01-28T20:33:33;23.40;99.90
39453;DHT22;25154;-33.684;151.102;2023-01-28T20:38:37;23.40;99.90
39453;DHT22;25154;-33.684;151.102;2023-01-28T20:43:41;23.50;99.90
39453;DHT22;25154;-33.684;151.102;2023-01-28T20:48:44;23.50;99.90
39453;DHT22;25154;-33.684;151.102;2023-01-28T20:53:47;23.60;99.90
39453;DHT22;25154;-33.684;151.102;2023-01-28T20:59:01;23.70;99.90
39453;DHT22;25154;-33.684;151.102;2023-01-28T21:04:05;23.70;99.90
39453;DHT22;25154;-33.684;151.102;2023-01-28T21:09:07;23.80;99.90
39453;DHT22;25154;-33.684;151.102;2023-01-28T21:14:10;23.80;99.90
39453;DHT22;25154;-33.684;151.102;2023-01-28T21:19:16;23.90;99.90
39453;DHT22;25154;-33.684;151.102;2023-01-28T21:24:18;24.10;99.90
39453;DHT22;25154;-33.684;151.102;2023-01-28T21:29:21;24.20;99.90
39453;DHT22;25154;-33.684;151.102;2023-01-28T21:34:23;24.50;99.90
39453;DHT22;25154;-33.684;151.102;2023-01-28T21:39:26;24.40;99.90
39453;DHT22;25154;-33.684;151.102;2023-01-28T21:44:28;24.50;99.90
39453;DHT22;25154;-33.684;151.102;2023-01-28T21:49:31;23.60;99.90
39453;DHT22;25154;-33.684;151.102;2023-01-28T21:54:34;24.90;99.90
39453;DHT22;25154;-33.684;151.102;2023-01-28T21:59:36;25.10;99.90
39453;DHT22;25154;-33.684;151.102;2023-01-28T22:04:42;26.50;99.90
39453;DHT22;25154;-33.684;151.102;2023-01-28T22:09:46;25.10;99.90
39453;DHT22;25154;-33.684;151.102;2023-01-28T22:14:49;25.20;99.90
39453;DHT22;25154;-33.684;151.102;2023-01-28T22:19:51;25.30;99.90
39453;DHT22;25154;-33.684;151.102;2023-01-28T22:24:55;25.50;99.90
39453;DHT22;25154;-33.684;151.102;2023-01-28T22:29:57;25.80;99.90
39453;DHT22;25154;-33.684;151.102;2023-01-28T22:34:59;26.20;99.90
39453;DHT22;25154;-33.684;151.102;2023-01-28T22:40:02;26.90;99.90
39453;DHT22;25154;-33.684;151.102;2023-01-28T22:45:05;27.00;99.90
39453;DHT22;25154;-33.684;151.102;2023-01-28T22:50:08;27.10;99.90
39453;DHT22;25154;-33.684;151.102;2023-01-28T22:55:11;27.20;99.90
39453;DHT22;25154;-33.684;151.102;2023-01-28T23:00:14;27.10;99.90
39453;DHT22;25154;-33.684;151.102;2023-01-28T23:05:17;27.20;99.90
39453;DHT22;25154;-33.684;151.102;2023-01-28T23:10:20;27.20;99.90
39453;DHT22;25154;-33.684;151.102;2023-01-28T23:15:22;27.90;99.90
39453;DHT22;25154;-33.684;151.102;2023-01-28T23:20:42;28.30;99.90
39453;DHT22;25154;-33.684;151.102;2023-01-28T23:26:03;28.40;99.90
39453;DHT22;25154;-33.684;151.102;2023-01-28T23:31:05;28.60;99.90
39453;DHT22;25154;-33.684;151.102;2023-01-28T23:36:08;28.40;99.90
39453;DHT22;25154;-33.684;151.102;2023-01-28T23:41:10;28.30;99.90
39453;DHT22;25154;-33.684;151.102;2023-01-28T23:46:12;28.40;99.90
39453;DHT22;25154;-33.684;151.102;2023-01-28T23:51:15;28.60;99.90
39453;DHT22;25154;-33.684;151.102;2023-01-28T23:56:18;29.20;99.90
